Falkenburg Branch, FL (33689)

10:03 AM EDT on September 01, 2014 (GMT -0400)
Radio Station W9DKC | Change Station
CLOSE
Current Station
Personal Weather Station
Location: Tampa, FL
Elevation: 34 ft
Nearby Weather Stations

Elev 34 ft 27.98 °N, 82.41 °W | Updated 3 minutes ago

Clear
Clear
83.2 °F
Feels Like 92 °F
N
0.0
Wind Variable Wind from South
Gusts 1.0 mph

Today
High -- | Low -- °F
--% Chance of Precip.
Yesterday
High -- | Low -- °F
Precip. -- in
7:08 AM 7:50 PM
Waxing Crescent, 41% visible
Pressure 30.13 in
Visibility 10.0 miles
Clouds Clear
Heat Index 92 °F
Dew Point 77 °F
Humidity 81%
Rainfall 0.00 in
Snow Depth Not available.
UV 5 out of 12
Pollen 5.20 out of 12
Air Quality Not available.
Flu Activity Not available.
METAR KTPA 011353Z 11004KT 10SM CLR 29/23 A3013 RMK AO2 SLP201 T02890233

More Conditions Fewer Conditions

Pressure 30.13 in
Visibility 10.0 miles
Clouds Clear
Heat Index 92 °F
Dew Point 77 °F
Humidity 81%
Rainfall 0.00 in
Snow Depth Not available.
UV 5 out of 12
Pollen 5.20 out of 12
Air Quality Not available.
Flu Activity Not available.
METAR KTPA 011353Z 11004KT 10SM CLR 29/23 A3013 RMK AO2 SLP201 T02890233

More Conditions Fewer Conditions

10-Day Weather Forecast

Almanac

Astronomy

Sep. 01, 2014 Rise Set
Actual Time 7:08 AM EDT 7:50 PM EDT
Civil Twilight 6:44 AM EDT 8:14 PM EDT
Nautical Twilight 6:16 AM EDT 8:42 PM EDT
Astronomical Twilight 5:47 AM EDT 9:11 PM EDT
Moon 1:19 PM EDT No Moon Set
Length of Visible Light 13h 29m
Length of Day
12h 42m
Tomorrow will be 1m 36s shorter.
Waxing Crescent, 41% of the Moon is Illuminated
Today
Waxing Crescent
Sep 2
First Quarter
Sep 8
Full
Sep 15
Last Quarter
Sep 24
New

Today's Extremes

State Highs State Lows

Community

WunderPhotos

Upload Photos

1,749,232 photos uploaded!

Nearby

Snow Depth

Station Depth Elevation
No new snow has been reported.

Earthquake Activity

City Distance Mag. Time & Date
No recent earthquake activity has been reported nearby.
Minimum magnitude displayed is 2.5.

Coastal Water Temperatures

Place Temperature
St Petersburg, FL 90.0 °F
Old Port Tampa, FL 88.0 °F
McKay Bay Entrance, FL 89.1 °F

Nearby Weather Stations